createdAt,value
2022-11-24T00:04:20.167Z,85.30
2022-11-24T00:09:14.026Z,84.91
2022-11-24T00:14:06.688Z,84.96
2022-11-24T00:18:59.936Z,84.23
2022-11-24T00:23:52.083Z,83.94
2022-11-24T00:28:44.393Z,83.67
2022-11-24T00:33:35.942Z,83.45
2022-11-24T00:38:27.639Z,83.70
2022-11-24T00:43:19.459Z,82.87
2022-11-24T00:48:11.023Z,82.73
2022-11-24T00:53:02.700Z,82.93
2022-11-24T00:57:54.247Z,82.67
2022-11-24T01:02:45.875Z,82.29
2022-11-24T01:07:37.523Z,81.56
2022-11-24T01:12:29.170Z,81.34
2022-11-24T01:17:20.691Z,81.35
2022-11-24T01:22:12.564Z,80.58
2022-11-24T01:27:04.187Z,79.91
2022-11-24T01:31:55.750Z,78.61
2022-11-24T01:36:47.281Z,77.32
2022-11-24T01:41:39.061Z,77.64
2022-11-24T01:46:43.538Z,78.51
2022-11-24T01:51:40.329Z,79.16
2022-11-24T01:56:35.114Z,79.10
2022-11-24T02:01:27.704Z,79.36
2022-11-24T02:06:24.880Z,78.52
2022-11-24T02:11:16.637Z,78.25
2022-11-24T02:16:11.602Z,78.93
2022-11-24T02:21:03.397Z,78.52
2022-11-24T02:26:16.037Z,77.93
2022-11-24T02:31:07.815Z,77.66
2022-11-24T02:35:59.449Z,77.78
2022-11-24T02:40:51.010Z,77.69
2022-11-24T02:45:42.556Z,77.89
2022-11-24T02:50:34.141Z,79.35
2022-11-24T02:55:25.684Z,80.30
2022-11-24T03:00:18.099Z,80.10
2022-11-24T03:05:11.996Z,80.59
2022-11-24T03:10:04.184Z,80.08
2022-11-24T03:14:55.851Z,79.69
2022-11-24T03:19:47.529Z,79.65
2022-11-24T03:24:39.066Z,79.01
2022-11-24T03:29:30.629Z,79.04
2022-11-24T03:34:22.444Z,78.80
2022-11-24T03:39:13.997Z,78.02
2022-11-24T03:44:05.581Z,78.72
2022-11-24T03:48:57.083Z,78.89
2022-11-24T03:53:48.664Z,79.29
2022-11-24T03:58:40.165Z,78.68
2022-11-24T04:03:31.780Z,78.55
2022-11-24T04:08:23.331Z,78.24
2022-11-24T04:13:17.212Z,77.81
2022-11-24T04:18:09.667Z,77.81
2022-11-24T04:23:02.357Z,78.21
2022-11-24T04:27:55.255Z,78.07
2022-11-24T04:32:47.174Z,77.02
2022-11-24T04:37:39.015Z,76.83
2022-11-24T04:42:31.003Z,76.21
2022-11-24T04:47:25.332Z,75.97
2022-11-24T04:52:19.455Z,75.57
2022-11-24T04:57:19.175Z,76.05
2022-11-24T05:02:10.931Z,75.59
2022-11-24T05:07:02.666Z,76.23
2022-11-24T05:11:54.203Z,75.98
2022-11-24T05:16:45.818Z,75.72
2022-11-24T05:21:37.335Z,76.23
2022-11-24T05:26:29.012Z,76.17
2022-11-24T05:31:20.633Z,76.08
2022-11-24T05:36:32.223Z,76.14
2022-11-24T05:41:23.834Z,76.34
2022-11-24T05:46:15.621Z,75.93
2022-11-24T05:51:09.395Z,76.22
2022-11-24T05:56:04.825Z,78.31
2022-11-24T06:00:56.376Z,79.73
2022-11-24T06:05:48.186Z,78.57
2022-11-24T06:10:39.753Z,78.10
2022-11-24T06:15:31.313Z,78.49
2022-11-24T06:20:28.337Z,79.17
2022-11-24T06:25:22.889Z,80.04
2022-11-24T06:30:15.049Z,80.45
2022-11-24T06:35:06.772Z,80.40
2022-11-24T06:39:58.421Z,79.91
2022-11-24T06:44:50.016Z,79.42
2022-11-24T06:49:41.542Z,79.41
2022-11-24T06:54:33.469Z,78.53
2022-11-24T06:59:26.497Z,77.99
2022-11-24T07:04:19.009Z,77.22
2022-11-24T07:09:12.218Z,77.50
2022-11-24T07:14:04.895Z,78.00
2022-11-24T07:18:56.816Z,78.73
2022-11-24T07:23:49.772Z,79.30
2022-11-24T07:28:41.696Z,80.47
2022-11-24T07:33:33.531Z,80.00
2022-11-24T07:38:25.147Z,80.39
2022-11-24T07:43:20.164Z,79.22
2022-11-24T07:53:05.310Z,76.94
2022-11-24T07:58:01.207Z,75.70
2022-11-24T08:02:53.815Z,75.39
2022-11-24T08:07:45.518Z,74.97
2022-11-24T08:12:37.238Z,73.98
2022-11-24T08:17:29.349Z,73.86
2022-11-24T08:22:21.224Z,73.79
2022-11-24T08:27:13.827Z,72.83
2022-11-24T08:32:05.656Z,72.34
2022-11-24T08:36:57.220Z,72.43
2022-11-24T08:41:48.892Z,72.30
2022-11-24T08:46:40.589Z,71.69
2022-11-24T08:51:32.227Z,71.28
2022-11-24T08:56:25.254Z,70.85
2022-11-24T09:01:18.975Z,70.75
2022-11-24T09:06:10.994Z,69.64
2022-11-24T09:11:08.654Z,67.14
2022-11-24T09:16:09.402Z,67.82
2022-11-24T09:21:15.968Z,66.74
2022-11-24T09:26:10.689Z,67.39
2022-11-24T09:31:04.183Z,67.83
2022-11-24T09:35:55.973Z,66.72
2022-11-24T09:40:47.511Z,65.59
2022-11-24T09:46:11.381Z,64.63
2022-11-24T09:51:04.760Z,64.40
2022-11-24T09:56:00.327Z,64.11
2022-11-24T10:00:54.474Z,63.21
2022-11-24T10:05:50.183Z,63.57
2022-11-24T10:10:57.277Z,63.26
2022-11-24T10:16:15.702Z,63.81
2022-11-24T10:21:39.670Z,64.82
2022-11-24T10:26:39.923Z,64.45
2022-11-24T10:31:38.172Z,64.59
2022-11-24T10:36:45.492Z,63.46
2022-11-24T10:41:51.354Z,63.67
2022-11-24T10:46:43.669Z,62.99
2022-11-24T10:52:26.801Z,63.24
2022-11-24T10:57:36.779Z,62.79
2022-11-24T11:02:38.579Z,62.05
2022-11-24T11:07:30.279Z,62.18
2022-11-24T11:12:46.145Z,61.88
2022-11-24T11:17:39.144Z,61.96
2022-11-24T11:22:32.527Z,61.36
2022-11-24T11:27:26.416Z,60.43
2022-11-24T11:37:38.547Z,59.43
2022-11-24T11:47:57.314Z,58.04
2022-11-24T11:53:12.873Z,57.41
2022-11-24T11:58:19.117Z,57.05
2022-11-24T12:03:26.061Z,57.41
2022-11-24T12:08:24.077Z,56.91
2022-11-24T12:13:36.451Z,56.85
2022-11-24T12:18:57.606Z,57.29
2022-11-24T12:24:12.415Z,58.10
2022-11-24T12:29:31.779Z,57.88
2022-11-24T12:34:44.912Z,58.64
2022-11-24T12:40:12.486Z,59.24
2022-11-24T12:45:12.932Z,59.04
2022-11-24T12:50:17.873Z,58.98
2022-11-24T12:55:23.478Z,59.54
2022-11-24T13:00:21.321Z,59.61
2022-11-24T13:05:12.803Z,58.57
2022-11-24T13:10:40.085Z,57.62
2022-11-24T13:16:07.109Z,58.23
2022-11-24T13:21:30.345Z,58.30
2022-11-24T13:26:32.938Z,58.17
2022-11-24T13:31:26.549Z,58.57
2022-11-24T13:36:24.273Z,58.61
2022-11-24T13:41:42.204Z,58.67
2022-11-24T13:47:05.596Z,58.76
2022-11-24T13:52:36.015Z,58.19
2022-11-24T13:57:35.371Z,58.11
2022-11-24T14:02:29.234Z,58.15
2022-11-24T14:07:20.885Z,58.51
2022-11-24T14:12:24.774Z,58.41
2022-11-24T14:17:28.710Z,58.86
2022-11-24T14:22:22.213Z,60.29
2022-11-24T14:27:17.128Z,59.17
2022-11-24T14:32:16.344Z,59.69
2022-11-24T14:37:10.178Z,60.25
2022-11-24T14:42:04.314Z,60.62
2022-11-24T14:47:07.213Z,61.18
2022-11-24T14:52:03.423Z,60.45
2022-11-24T14:57:06.234Z,61.63
2022-11-24T15:01:59.533Z,61.54
2022-11-24T15:07:11.027Z,62.36
2022-11-24T15:12:34.387Z,62.83
2022-11-24T15:17:29.054Z,63.21
2022-11-24T15:22:35.038Z,62.97
2022-11-24T15:27:27.798Z,63.62
2022-11-24T15:32:19.444Z,64.25
2022-11-24T15:37:11.194Z,64.25
2022-11-24T15:42:02.944Z,65.16
2022-11-24T15:46:55.262Z,65.39
2022-11-24T15:51:48.082Z,65.62
2022-11-24T15:56:41.793Z,66.58
2022-11-24T16:01:34.256Z,67.28
2022-11-24T16:06:26.110Z,67.67
2022-11-24T16:11:17.714Z,67.38
2022-11-24T16:16:09.829Z,67.78
2022-11-24T16:21:01.384Z,67.80
2022-11-24T16:25:52.942Z,67.92
2022-11-24T16:30:49.557Z,68.10
2022-11-24T16:35:41.082Z,68.39
2022-11-24T16:40:32.799Z,69.56
2022-11-24T16:45:25.777Z,68.94
2022-11-24T16:50:17.477Z,69.05
2022-11-24T16:55:09.805Z,69.50
2022-11-24T17:00:01.505Z,70.62
2022-11-24T17:04:53.215Z,70.89
2022-11-24T17:09:44.836Z,71.32
2022-11-24T17:14:36.958Z,71.54
2022-11-24T17:19:31.590Z,71.55
2022-11-24T17:24:23.247Z,71.75
2022-11-24T17:29:14.742Z,71.96
2022-11-24T17:34:07.663Z,71.87
2022-11-24T17:39:00.067Z,71.84
2022-11-24T17:43:53.378Z,71.67
2022-11-24T17:48:45.339Z,71.28
2022-11-24T17:53:37.565Z,71.33
2022-11-24T17:58:30.966Z,71.69
2022-11-24T18:03:23.114Z,71.17
2022-11-24T18:08:14.766Z,71.36
2022-11-24T18:13:06.473Z,72.17
2022-11-24T18:17:58.048Z,71.74
2022-11-24T18:23:05.196Z,72.21
2022-11-24T18:27:57.941Z,71.89
2022-11-24T18:32:49.558Z,71.62
2022-11-24T18:37:44.221Z,71.71
2022-11-24T18:42:35.737Z,71.60
2022-11-24T18:47:27.739Z,72.20
2022-11-24T18:52:19.322Z,72.21
2022-11-24T18:57:11.023Z,72.24
2022-11-24T19:02:02.633Z,72.21
2022-11-24T19:06:54.244Z,72.56
2022-11-24T19:11:46.964Z,72.54
2022-11-24T19:16:39.468Z,72.67
2022-11-24T19:21:33.142Z,73.36
2022-11-24T19:26:24.766Z,73.75
2022-11-24T19:31:17.904Z,73.72
2022-11-24T19:36:20.336Z,74.58
2022-11-24T19:41:13.938Z,74.56
2022-11-24T19:46:11.257Z,74.50
2022-11-24T19:51:05.882Z,74.82
2022-11-24T19:56:14.933Z,74.72
2022-11-24T20:01:12.237Z,75.06
2022-11-24T20:06:05.157Z,75.29
2022-11-24T20:11:16.550Z,75.47
2022-11-24T20:16:10.884Z,76.17
2022-11-24T20:21:05.073Z,77.12
2022-11-24T20:26:04.269Z,76.63
2022-11-24T20:30:55.898Z,76.69
2022-11-24T20:35:47.552Z,77.06
2022-11-24T20:40:39.274Z,77.29
2022-11-24T20:45:31.200Z,77.35
2022-11-24T20:50:22.923Z,77.12
2022-11-24T20:55:14.685Z,77.19
2022-11-24T21:00:07.209Z,77.79
2022-11-24T21:04:58.981Z,77.91
2022-11-24T21:09:51.229Z,78.28
2022-11-24T21:14:42.947Z,79.14
2022-11-24T21:19:34.631Z,78.52
2022-11-24T21:24:26.232Z,79.19
2022-11-24T21:29:19.459Z,78.93
2022-11-24T21:34:15.408Z,79.16
2022-11-24T21:39:07.301Z,79.37
2022-11-24T21:43:59.008Z,79.61
2022-11-24T21:48:50.923Z,79.99
2022-11-24T21:53:43.627Z,79.48
2022-11-24T21:58:36.984Z,79.33
2022-11-24T22:03:29.446Z,79.45
2022-11-24T22:08:22.889Z,78.75
2022-11-24T22:13:15.338Z,78.60
2022-11-24T22:18:07.449Z,78.72
2022-11-24T22:22:59.124Z,78.93
2022-11-24T22:27:50.750Z,80.48
2022-11-24T22:32:42.297Z,79.16
2022-11-24T22:37:33.820Z,78.36
2022-11-24T22:42:25.393Z,78.19
2022-11-24T22:47:16.922Z,77.67
2022-11-24T22:52:08.449Z,77.96
2022-11-24T22:56:59.994Z,76.87
2022-11-24T23:01:51.591Z,76.74
2022-11-24T23:06:43.421Z,76.84
2022-11-24T23:11:38.692Z,76.40
2022-11-24T23:16:31.086Z,76.28
2022-11-24T23:21:25.828Z,77.15
2022-11-24T23:26:23.875Z,77.62
2022-11-24T23:31:18.298Z,78.01
2022-11-24T23:36:18.253Z,77.94
2022-11-24T23:41:18.922Z,78.08
2022-11-24T23:46:13.622Z,79.46
2022-11-24T23:51:23.056Z,79.44
2022-11-24T23:56:17.690Z,79.11
